sensor_id;sensor_type;location;lat;lon;timestamp;P1;durP1;ratioP1;P2;durP2;ratioP2
65552;SDS011;52465;51.560;14.368;2023-02-13T00:01:59;9.95;;;8.93;;
65552;SDS011;52465;51.560;14.368;2023-02-13T00:04:25;10.57;;;9.52;;
65552;SDS011;52465;51.560;14.368;2023-02-13T00:06:51;10.35;;;9.35;;
65552;SDS011;52465;51.560;14.368;2023-02-13T00:09:17;10.02;;;9.00;;
65552;SDS011;52465;51.560;14.368;2023-02-13T00:11:43;10.05;;;9.15;;
65552;SDS011;52465;51.560;14.368;2023-02-13T00:14:08;9.70;;;8.70;;
65552;SDS011;52465;51.560;14.368;2023-02-13T00:16:34;10.68;;;9.52;;
65552;SDS011;52465;51.560;14.368;2023-02-13T00:19:00;9.70;;;8.73;;
65552;SDS011;52465;51.560;14.368;2023-02-13T00:21:26;10.15;;;9.07;;
65552;SDS011;52465;51.560;14.368;2023-02-13T00:23:51;10.80;;;9.70;;
65552;SDS011;52465;51.560;14.368;2023-02-13T00:26:17;11.82;;;9.70;;
65552;SDS011;52465;51.560;14.368;2023-02-13T00:28:43;9.60;;;8.70;;
65552;SDS011;52465;51.560;14.368;2023-02-13T00:31:10;10.25;;;9.25;;
65552;SDS011;52465;51.560;14.368;2023-02-13T00:33:37;10.32;;;9.27;;
65552;SDS011;52465;51.560;14.368;2023-02-13T00:38:34;10.00;;;9.10;;
65552;SDS011;52465;51.560;14.368;2023-02-13T00:41:00;9.73;;;8.88;;
65552;SDS011;52465;51.560;14.368;2023-02-13T00:43:25;10.10;;;9.10;;
65552;SDS011;52465;51.560;14.368;2023-02-13T00:45:51;9.18;;;8.27;;
65552;SDS011;52465;51.560;14.368;2023-02-13T00:48:16;10.40;;;8.60;;
65552;SDS011;52465;51.560;14.368;2023-02-13T00:50:41;11.43;;;9.18;;
65552;SDS011;52465;51.560;14.368;2023-02-13T00:53:07;10.20;;;9.20;;
65552;SDS011;52465;51.560;14.368;2023-02-13T00:55:33;9.45;;;8.55;;
65552;SDS011;52465;51.560;14.368;2023-02-13T00:57:59;9.63;;;8.68;;
65552;SDS011;52465;51.560;14.368;2023-02-13T01:00:25;9.82;;;8.80;;
65552;SDS011;52465;51.560;14.368;2023-02-13T01:02:51;10.00;;;9.10;;
65552;SDS011;52465;51.560;14.368;2023-02-13T01:05:16;9.60;;;8.70;;
65552;SDS011;52465;51.560;14.368;2023-02-13T01:07:42;10.13;;;9.23;;
65552;SDS011;52465;51.560;14.368;2023-02-13T01:10:08;9.60;;;8.70;;
65552;SDS011;52465;51.560;14.368;2023-02-13T01:12:33;9.50;;;8.60;;
65552;SDS011;52465;51.560;14.368;2023-02-13T01:14:59;9.43;;;8.52;;
65552;SDS011;52465;51.560;14.368;2023-02-13T01:17:24;9.70;;;8.80;;
65552;SDS011;52465;51.560;14.368;2023-02-13T01:19:50;9.60;;;8.70;;
65552;SDS011;52465;51.560;14.368;2023-02-13T01:22:15;10.40;;;9.40;;
65552;SDS011;52465;51.560;14.368;2023-02-13T01:24:41;10.10;;;9.20;;
65552;SDS011;52465;51.560;14.368;2023-02-13T01:27:06;10.02;;;9.13;;
65552;SDS011;52465;51.560;14.368;2023-02-13T01:29:31;9.50;;;8.60;;
65552;SDS011;52465;51.560;14.368;2023-02-13T01:31:57;9.65;;;8.75;;
65552;SDS011;52465;51.560;14.368;2023-02-13T01:34:22;10.25;;;9.25;;
65552;SDS011;52465;51.560;14.368;2023-02-13T01:36:48;11.20;;;10.00;;
65552;SDS011;52465;51.560;14.368;2023-02-13T01:39:13;9.70;;;8.80;;
65552;SDS011;52465;51.560;14.368;2023-02-13T01:41:39;9.85;;;8.77;;
65552;SDS011;52465;51.560;14.368;2023-02-13T01:47:08;14.27;;;9.75;;
65552;SDS011;52465;51.560;14.368;2023-02-13T01:49:36;10.30;;;9.20;;
65552;SDS011;52465;51.560;14.368;2023-02-13T01:52:02;10.15;;;9.18;;
65552;SDS011;52465;51.560;14.368;2023-02-13T01:54:29;10.23;;;9.35;;
65552;SDS011;52465;51.560;14.368;2023-02-13T01:57:03;10.38;;;9.05;;
65552;SDS011;52465;51.560;14.368;2023-02-13T01:59:47;10.25;;;9.10;;
65552;SDS011;52465;51.560;14.368;2023-02-13T02:02:16;9.90;;;8.90;;
65552;SDS011;52465;51.560;14.368;2023-02-13T02:04:43;11.43;;;9.25;;
65552;SDS011;52465;51.560;14.368;2023-02-13T02:07:16;10.63;;;9.63;;
65552;SDS011;52465;51.560;14.368;2023-02-13T02:09:45;10.40;;;9.38;;
65552;SDS011;52465;51.560;14.368;2023-02-13T02:14:59;9.65;;;8.65;;
65552;SDS011;52465;51.560;14.368;2023-02-13T02:17:26;10.57;;;9.57;;
65552;SDS011;52465;51.560;14.368;2023-02-13T02:19:59;10.35;;;9.40;;
65552;SDS011;52465;51.560;14.368;2023-02-13T02:22:42;10.73;;;9.70;;
65552;SDS011;52465;51.560;14.368;2023-02-13T02:34:12;11.95;;;9.68;;
65552;SDS011;52465;51.560;14.368;2023-02-13T02:37:14;11.88;;;10.15;;
65552;SDS011;52465;51.560;14.368;2023-02-13T02:46:07;11.10;;;9.75;;
65552;SDS011;52465;51.560;14.368;2023-02-13T02:48:42;11.82;;;10.15;;
65552;SDS011;52465;51.560;14.368;2023-02-13T02:51:40;10.40;;;9.23;;
65552;SDS011;52465;51.560;14.368;2023-02-13T02:57:19;10.68;;;9.43;;
65552;SDS011;52465;51.560;14.368;2023-02-13T03:00:16;9.93;;;8.88;;
65552;SDS011;52465;51.560;14.368;2023-02-13T03:03:04;13.00;;;9.70;;
65552;SDS011;52465;51.560;14.368;2023-02-13T03:05:56;10.68;;;9.60;;
65552;SDS011;52465;51.560;14.368;2023-02-13T03:08:32;11.00;;;9.55;;
65552;SDS011;52465;51.560;14.368;2023-02-13T03:11:16;15.23;;;10.50;;
65552;SDS011;52465;51.560;14.368;2023-02-13T03:14:00;10.63;;;8.93;;
65552;SDS011;52465;51.560;14.368;2023-02-13T03:16:29;13.82;;;10.05;;
65552;SDS011;52465;51.560;14.368;2023-02-13T03:19:22;11.48;;;9.88;;
65552;SDS011;52465;51.560;14.368;2023-02-13T03:22:15;10.27;;;9.27;;
65552;SDS011;52465;51.560;14.368;2023-02-13T03:39:14;11.60;;;10.15;;
65552;SDS011;52465;51.560;14.368;2023-02-13T03:42:04;12.10;;;10.33;;
65552;SDS011;52465;51.560;14.368;2023-02-13T03:44:42;10.90;;;9.75;;
65552;SDS011;52465;51.560;14.368;2023-02-13T03:47:34;9.50;;;8.52;;
65552;SDS011;52465;51.560;14.368;2023-02-13T03:50:00;13.15;;;10.30;;
65552;SDS011;52465;51.560;14.368;2023-02-13T03:55:22;12.65;;;10.07;;
65552;SDS011;52465;51.560;14.368;2023-02-13T03:58:14;10.85;;;9.55;;
65552;SDS011;52465;51.560;14.368;2023-02-13T04:01:03;10.70;;;9.50;;
65552;SDS011;52465;51.560;14.368;2023-02-13T04:06:33;11.88;;;10.02;;
65552;SDS011;52465;51.560;14.368;2023-02-13T04:09:02;11.60;;;9.55;;
65552;SDS011;52465;51.560;14.368;2023-02-13T04:11:32;10.73;;;9.63;;
65552;SDS011;52465;51.560;14.368;2023-02-13T04:14:18;12.05;;;10.02;;
65552;SDS011;52465;51.560;14.368;2023-02-13T04:16:58;12.63;;;10.38;;
65552;SDS011;52465;51.560;14.368;2023-02-13T04:19:29;13.13;;;10.00;;
65552;SDS011;52465;51.560;14.368;2023-02-13T04:21:57;11.45;;;9.43;;
65552;SDS011;52465;51.560;14.368;2023-02-13T04:24:25;14.00;;;9.35;;
65552;SDS011;52465;51.560;14.368;2023-02-13T04:26:51;13.93;;;10.48;;
65552;SDS011;52465;51.560;14.368;2023-02-13T04:29:19;10.63;;;9.35;;
65552;SDS011;52465;51.560;14.368;2023-02-13T04:31:46;13.98;;;9.82;;
65552;SDS011;52465;51.560;14.368;2023-02-13T04:34:12;11.85;;;9.50;;
65552;SDS011;52465;51.560;14.368;2023-02-13T04:36:38;11.07;;;9.73;;
65552;SDS011;52465;51.560;14.368;2023-02-13T04:39:03;10.82;;;9.68;;
65552;SDS011;52465;51.560;14.368;2023-02-13T04:41:29;15.63;;;11.52;;
65552;SDS011;52465;51.560;14.368;2023-02-13T04:43:54;10.90;;;9.80;;
65552;SDS011;52465;51.560;14.368;2023-02-13T04:46:19;11.18;;;9.10;;
65552;SDS011;52465;51.560;14.368;2023-02-13T04:48:45;12.20;;;9.65;;
65552;SDS011;52465;51.560;14.368;2023-02-13T04:51:10;13.23;;;10.32;;
65552;SDS011;52465;51.560;14.368;2023-02-13T04:53:36;13.15;;;10.32;;
65552;SDS011;52465;51.560;14.368;2023-02-13T04:56:01;12.45;;;10.27;;
65552;SDS011;52465;51.560;14.368;2023-02-13T04:58:27;12.80;;;10.45;;
65552;SDS011;52465;51.560;14.368;2023-02-13T05:00:52;12.60;;;9.85;;
65552;SDS011;52465;51.560;14.368;2023-02-13T05:03:18;13.88;;;10.10;;
65552;SDS011;52465;51.560;14.368;2023-02-13T05:05:47;14.63;;;10.60;;
65552;SDS011;52465;51.560;14.368;2023-02-13T05:08:13;14.18;;;9.98;;
65552;SDS011;52465;51.560;14.368;2023-02-13T05:10:39;14.30;;;10.70;;
65552;SDS011;52465;51.560;14.368;2023-02-13T05:13:04;11.65;;;9.70;;
65552;SDS011;52465;51.560;14.368;2023-02-13T05:15:30;13.13;;;10.02;;
65552;SDS011;52465;51.560;14.368;2023-02-13T05:17:55;11.57;;;9.70;;
65552;SDS011;52465;51.560;14.368;2023-02-13T05:20:20;17.60;;;10.70;;
65552;SDS011;52465;51.560;14.368;2023-02-13T05:22:46;12.68;;;10.20;;
65552;SDS011;52465;51.560;14.368;2023-02-13T05:25:33;13.80;;;10.75;;
65552;SDS011;52465;51.560;14.368;2023-02-13T05:27:59;14.80;;;10.40;;
65552;SDS011;52465;51.560;14.368;2023-02-13T05:30:28;15.00;;;10.48;;
65552;SDS011;52465;51.560;14.368;2023-02-13T05:32:54;12.00;;;9.80;;
65552;SDS011;52465;51.560;14.368;2023-02-13T05:35:22;12.55;;;10.32;;
65552;SDS011;52465;51.560;14.368;2023-02-13T05:37:48;12.88;;;10.15;;
65552;SDS011;52465;51.560;14.368;2023-02-13T05:40:17;14.15;;;10.00;;
65552;SDS011;52465;51.560;14.368;2023-02-13T05:42:42;13.00;;;10.00;;
65552;SDS011;52465;51.560;14.368;2023-02-13T05:45:08;14.35;;;10.32;;
65552;SDS011;52465;51.560;14.368;2023-02-13T05:47:34;12.35;;;10.40;;
65552;SDS011;52465;51.560;14.368;2023-02-13T05:50:00;12.27;;;9.65;;
65552;SDS011;52465;51.560;14.368;2023-02-13T05:52:26;14.20;;;10.10;;
65552;SDS011;52465;51.560;14.368;2023-02-13T05:54:51;10.75;;;9.55;;
65552;SDS011;52465;51.560;14.368;2023-02-13T05:57:17;14.10;;;10.88;;
65552;SDS011;52465;51.560;14.368;2023-02-13T05:59:42;12.88;;;10.07;;
65552;SDS011;52465;51.560;14.368;2023-02-13T06:02:11;14.60;;;9.48;;
65552;SDS011;52465;51.560;14.368;2023-02-13T06:04:37;12.02;;;10.00;;
65552;SDS011;52465;51.560;14.368;2023-02-13T06:07:02;11.77;;;9.77;;
65552;SDS011;52465;51.560;14.368;2023-02-13T06:09:27;12.65;;;10.20;;
65552;SDS011;52465;51.560;14.368;2023-02-13T06:11:53;12.73;;;10.00;;
65552;SDS011;52465;51.560;14.368;2023-02-13T06:14:18;11.32;;;9.48;;
65552;SDS011;52465;51.560;14.368;2023-02-13T06:16:44;12.07;;;9.45;;
65552;SDS011;52465;51.560;14.368;2023-02-13T06:19:09;14.27;;;10.00;;
65552;SDS011;52465;51.560;14.368;2023-02-13T06:21:35;12.95;;;9.85;;
65552;SDS011;52465;51.560;14.368;2023-02-13T06:24:03;11.68;;;9.52;;
65552;SDS011;52465;51.560;14.368;2023-02-13T06:26:31;14.88;;;10.13;;
65552;SDS011;52465;51.560;14.368;2023-02-13T06:28:56;12.10;;;9.90;;
65552;SDS011;52465;51.560;14.368;2023-02-13T06:31:22;14.63;;;10.52;;
65552;SDS011;52465;51.560;14.368;2023-02-13T06:33:47;10.82;;;9.48;;
65552;SDS011;52465;51.560;14.368;2023-02-13T06:36:13;10.82;;;9.02;;
65552;SDS011;52465;51.560;14.368;2023-02-13T06:38:39;12.15;;;9.82;;
65552;SDS011;52465;51.560;14.368;2023-02-13T06:41:07;10.75;;;9.65;;
65552;SDS011;52465;51.560;14.368;2023-02-13T06:43:34;10.95;;;9.20;;
65552;SDS011;52465;51.560;14.368;2023-02-13T06:46:05;11.30;;;9.73;;
65552;SDS011;52465;51.560;14.368;2023-02-13T06:48:32;10.50;;;9.40;;
65552;SDS011;52465;51.560;14.368;2023-02-13T06:50:58;12.23;;;10.25;;
65552;SDS011;52465;51.560;14.368;2023-02-13T06:53:25;10.18;;;9.18;;
65552;SDS011;52465;51.560;14.368;2023-02-13T06:55:51;11.75;;;9.43;;
65552;SDS011;52465;51.560;14.368;2023-02-13T06:58:18;11.68;;;9.68;;
65552;SDS011;52465;51.560;14.368;2023-02-13T07:00:44;13.05;;;9.95;;
65552;SDS011;52465;51.560;14.368;2023-02-13T07:03:09;10.80;;;9.70;;
65552;SDS011;52465;51.560;14.368;2023-02-13T07:05:38;11.77;;;9.52;;
65552;SDS011;52465;51.560;14.368;2023-02-13T07:08:04;13.07;;;9.95;;
65552;SDS011;52465;51.560;14.368;2023-02-13T07:10:30;11.15;;;9.20;;
65552;SDS011;52465;51.560;14.368;2023-02-13T07:12:55;12.07;;;9.20;;
65552;SDS011;52465;51.560;14.368;2023-02-13T07:15:21;10.27;;;9.27;;
65552;SDS011;52465;51.560;14.368;2023-02-13T07:17:46;12.50;;;10.32;;
65552;SDS011;52465;51.560;14.368;2023-02-13T07:20:12;11.68;;;9.85;;
65552;SDS011;52465;51.560;14.368;2023-02-13T07:22:37;11.07;;;9.57;;
65552;SDS011;52465;51.560;14.368;2023-02-13T07:25:06;10.52;;;9.48;;
65552;SDS011;52465;51.560;14.368;2023-02-13T07:27:31;12.27;;;9.65;;
65552;SDS011;52465;51.560;14.368;2023-02-13T07:29:57;11.10;;;9.27;;
65552;SDS011;52465;51.560;14.368;2023-02-13T07:32:23;13.93;;;10.75;;
65552;SDS011;52465;51.560;14.368;2023-02-13T07:34:49;10.13;;;9.07;;
65552;SDS011;52465;51.560;14.368;2023-02-13T07:37:14;12.07;;;9.30;;
65552;SDS011;52465;51.560;14.368;2023-02-13T07:39:40;11.40;;;9.15;;
65552;SDS011;52465;51.560;14.368;2023-02-13T07:42:06;12.30;;;9.93;;
65552;SDS011;52465;51.560;14.368;2023-02-13T07:44:32;10.25;;;9.25;;
65552;SDS011;52465;51.560;14.368;2023-02-13T07:46:57;10.73;;;9.60;;
65552;SDS011;52465;51.560;14.368;2023-02-13T07:49:24;10.00;;;8.95;;
65552;SDS011;52465;51.560;14.368;2023-02-13T07:51:49;9.25;;;8.35;;
65552;SDS011;52465;51.560;14.368;2023-02-13T07:54:15;10.32;;;9.30;;
65552;SDS011;52465;51.560;14.368;2023-02-13T07:56:40;12.30;;;9.48;;
65552;SDS011;52465;51.560;14.368;2023-02-13T07:59:06;11.98;;;9.52;;
65552;SDS011;52465;51.560;14.368;2023-02-13T08:01:31;13.45;;;9.48;;
65552;SDS011;52465;51.560;14.368;2023-02-13T08:03:57;11.25;;;9.80;;
65552;SDS011;52465;51.560;14.368;2023-02-13T08:06:22;10.82;;;9.60;;
65552;SDS011;52465;51.560;14.368;2023-02-13T08:08:48;10.45;;;9.38;;
65552;SDS011;52465;51.560;14.368;2023-02-13T08:11:30;10.52;;;9.50;;
65552;SDS011;52465;51.560;14.368;2023-02-13T08:14:15;10.27;;;9.27;;
65552;SDS011;52465;51.560;14.368;2023-02-13T08:16:41;10.82;;;9.13;;
65552;SDS011;52465;51.560;14.368;2023-02-13T08:19:06;10.02;;;9.02;;
65552;SDS011;52465;51.560;14.368;2023-02-13T08:21:32;10.25;;;9.25;;
65552;SDS011;52465;51.560;14.368;2023-02-13T08:23:59;10.50;;;9.48;;
65552;SDS011;52465;51.560;14.368;2023-02-13T08:26:25;12.32;;;9.77;;
65552;SDS011;52465;51.560;14.368;2023-02-13T08:28:50;10.43;;;9.30;;
65552;SDS011;52465;51.560;14.368;2023-02-13T08:31:16;9.70;;;8.70;;
65552;SDS011;52465;51.560;14.368;2023-02-13T08:33:42;12.73;;;9.70;;
65552;SDS011;52465;51.560;14.368;2023-02-13T08:36:07;10.40;;;9.32;;
65552;SDS011;52465;51.560;14.368;2023-02-13T08:38:33;11.13;;;9.50;;
65552;SDS011;52465;51.560;14.368;2023-02-13T08:40:59;9.75;;;8.73;;
65552;SDS011;52465;51.560;14.368;2023-02-13T08:43:24;9.75;;;8.75;;
65552;SDS011;52465;51.560;14.368;2023-02-13T08:45:53;10.00;;;9.05;;
65552;SDS011;52465;51.560;14.368;2023-02-13T08:48:18;11.25;;;9.30;;
65552;SDS011;52465;51.560;14.368;2023-02-13T08:50:46;10.60;;;8.98;;
65552;SDS011;52465;51.560;14.368;2023-02-13T08:53:15;9.73;;;8.68;;
65552;SDS011;52465;51.560;14.368;2023-02-13T08:55:40;10.70;;;9.63;;
65552;SDS011;52465;51.560;14.368;2023-02-13T08:58:06;10.00;;;8.88;;
65552;SDS011;52465;51.560;14.368;2023-02-13T09:00:31;11.52;;;9.82;;
65552;SDS011;52465;51.560;14.368;2023-02-13T09:03:00;9.52;;;8.60;;
65552;SDS011;52465;51.560;14.368;2023-02-13T09:05:27;11.20;;;9.75;;
65552;SDS011;52465;51.560;14.368;2023-02-13T09:07:53;9.38;;;8.48;;
65552;SDS011;52465;51.560;14.368;2023-02-13T09:10:18;10.77;;;9.73;;
65552;SDS011;52465;51.560;14.368;2023-02-13T09:12:50;9.90;;;9.00;;
65552;SDS011;52465;51.560;14.368;2023-02-13T09:15:16;10.50;;;9.32;;
65552;SDS011;52465;51.560;14.368;2023-02-13T09:17:42;9.75;;;8.85;;
65552;SDS011;52465;51.560;14.368;2023-02-13T09:20:07;9.30;;;8.50;;
65552;SDS011;52465;51.560;14.368;2023-02-13T09:22:33;9.98;;;9.05;;
65552;SDS011;52465;51.560;14.368;2023-02-13T09:24:58;11.43;;;9.70;;
65552;SDS011;52465;51.560;14.368;2023-02-13T09:27:28;10.13;;;9.07;;
65552;SDS011;52465;51.560;14.368;2023-02-13T09:29:53;9.45;;;8.63;;
65552;SDS011;52465;51.560;14.368;2023-02-13T09:32:19;11.10;;;9.10;;
65552;SDS011;52465;51.560;14.368;2023-02-13T09:34:44;9.60;;;8.75;;
65552;SDS011;52465;51.560;14.368;2023-02-13T09:37:10;9.35;;;8.55;;
65552;SDS011;52465;51.560;14.368;2023-02-13T09:39:44;10.90;;;8.82;;
65552;SDS011;52465;51.560;14.368;2023-02-13T09:42:20;9.80;;;8.90;;
65552;SDS011;52465;51.560;14.368;2023-02-13T09:44:50;9.38;;;8.32;;
65552;SDS011;52465;51.560;14.368;2023-02-13T09:49:46;10.02;;;8.75;;
65552;SDS011;52465;51.560;14.368;2023-02-13T09:52:16;9.68;;;8.68;;
65552;SDS011;52465;51.560;14.368;2023-02-13T09:54:42;9.98;;;8.98;;
65552;SDS011;52465;51.560;14.368;2023-02-13T09:57:13;10.98;;;9.27;;
65552;SDS011;52465;51.560;14.368;2023-02-13T10:00:11;10.73;;;9.13;;
65552;SDS011;52465;51.560;14.368;2023-02-13T10:02:44;9.77;;;8.88;;
65552;SDS011;52465;51.560;14.368;2023-02-13T10:13:58;9.48;;;8.65;;
65552;SDS011;52465;51.560;14.368;2023-02-13T10:19:23;9.23;;;8.32;;
65552;SDS011;52465;51.560;14.368;2023-02-13T10:22:19;9.45;;;8.52;;
65552;SDS011;52465;51.560;14.368;2023-02-13T10:24:53;10.20;;;9.20;;
65552;SDS011;52465;51.560;14.368;2023-02-13T10:27:34;9.52;;;8.52;;
65552;SDS011;52465;51.560;14.368;2023-02-13T10:30:05;9.98;;;8.98;;
65552;SDS011;52465;51.560;14.368;2023-02-13T10:33:12;9.00;;;8.15;;
65552;SDS011;52465;51.560;14.368;2023-02-13T10:35:44;9.38;;;8.38;;
65552;SDS011;52465;51.560;14.368;2023-02-13T10:38:27;8.90;;;8.15;;
65552;SDS011;52465;51.560;14.368;2023-02-13T10:43:45;9.02;;;8.15;;
65552;SDS011;52465;51.560;14.368;2023-02-13T10:52:19;8.85;;;8.05;;
65552;SDS011;52465;51.560;14.368;2023-02-13T10:55:04;10.05;;;9.10;;
65552;SDS011;52465;51.560;14.368;2023-02-13T10:57:57;8.68;;;7.93;;
65552;SDS011;52465;51.560;14.368;2023-02-13T11:03:19;8.77;;;7.97;;
65552;SDS011;52465;51.560;14.368;2023-02-13T11:05:47;8.35;;;7.70;;
65552;SDS011;52465;51.560;14.368;2023-02-13T11:08:19;8.93;;;8.13;;
65552;SDS011;52465;51.560;14.368;2023-02-13T11:10:47;9.20;;;8.40;;
65552;SDS011;52465;51.560;14.368;2023-02-13T11:13:18;9.15;;;8.40;;
65552;SDS011;52465;51.560;14.368;2023-02-13T11:16:02;8.60;;;7.80;;
65552;SDS011;52465;51.560;14.368;2023-02-13T11:18:38;8.57;;;7.80;;
65552;SDS011;52465;51.560;14.368;2023-02-13T11:21:07;9.02;;;8.32;;
65552;SDS011;52465;51.560;14.368;2023-02-13T11:23:36;9.13;;;8.27;;
65552;SDS011;52465;51.560;14.368;2023-02-13T11:26:23;8.70;;;7.90;;
65552;SDS011;52465;51.560;14.368;2023-02-13T11:29:00;8.50;;;7.55;;
65552;SDS011;52465;51.560;14.368;2023-02-13T11:31:32;8.80;;;8.00;;
65552;SDS011;52465;51.560;14.368;2023-02-13T11:33:59;9.20;;;8.30;;
65552;SDS011;52465;51.560;14.368;2023-02-13T11:39:38;8.88;;;8.10;;
65552;SDS011;52465;51.560;14.368;2023-02-13T11:42:12;8.27;;;7.60;;
65552;SDS011;52465;51.560;14.368;2023-02-13T11:44:40;8.65;;;7.85;;
65552;SDS011;52465;51.560;14.368;2023-02-13T11:47:07;9.52;;;8.63;;
65552;SDS011;52465;51.560;14.368;2023-02-13T11:49:36;9.40;;;8.50;;
65552;SDS011;52465;51.560;14.368;2023-02-13T11:52:22;9.50;;;8.55;;
65552;SDS011;52465;51.560;14.368;2023-02-13T11:54:58;8.82;;;8.02;;
65552;SDS011;52465;51.560;14.368;2023-02-13T11:57:28;9.27;;;8.38;;
65552;SDS011;52465;51.560;14.368;2023-02-13T12:00:24;8.98;;;8.23;;
65552;SDS011;52465;51.560;14.368;2023-02-13T12:02:48;8.73;;;7.90;;
65552;SDS011;52465;51.560;14.368;2023-02-13T12:05:19;8.63;;;7.93;;
65552;SDS011;52465;51.560;14.368;2023-02-13T12:07:47;9.13;;;8.25;;
65552;SDS011;52465;51.560;14.368;2023-02-13T12:10:22;8.93;;;8.15;;
65552;SDS011;52465;51.560;14.368;2023-02-13T12:15:34;8.50;;;7.80;;
65552;SDS011;52465;51.560;14.368;2023-02-13T12:20:34;8.70;;;7.90;;
65552;SDS011;52465;51.560;14.368;2023-02-13T12:23:28;8.55;;;7.85;;
65552;SDS011;52465;51.560;14.368;2023-02-13T12:26:08;8.75;;;8.05;;
65552;SDS011;52465;51.560;14.368;2023-02-13T12:34:40;8.57;;;7.80;;
65552;SDS011;52465;51.560;14.368;2023-02-13T12:45:51;7.57;;;6.95;;
65552;SDS011;52465;51.560;14.368;2023-02-13T12:48:34;7.80;;;7.20;;
65552;SDS011;52465;51.560;14.368;2023-02-13T12:54:01;8.35;;;7.50;;
65552;SDS011;52465;51.560;14.368;2023-02-13T13:02:14;8.55;;;7.75;;
65552;SDS011;52465;51.560;14.368;2023-02-13T13:05:25;10.25;;;8.27;;
65552;SDS011;52465;51.560;14.368;2023-02-13T13:11:02;8.48;;;7.70;;
65552;SDS011;52465;51.560;14.368;2023-02-13T13:13:36;8.40;;;7.70;;
65552;SDS011;52465;51.560;14.368;2023-02-13T13:16:28;8.10;;;7.28;;
65552;SDS011;52465;51.560;14.368;2023-02-13T13:24:57;8.13;;;7.32;;
65552;SDS011;52465;51.560;14.368;2023-02-13T13:27:32;8.00;;;7.40;;
65552;SDS011;52465;51.560;14.368;2023-02-13T13:30:12;8.00;;;7.30;;
65552;SDS011;52465;51.560;14.368;2023-02-13T13:32:45;8.05;;;7.25;;
65552;SDS011;52465;51.560;14.368;2023-02-13T13:35:15;7.85;;;7.15;;
65552;SDS011;52465;51.560;14.368;2023-02-13T13:37:59;7.97;;;7.28;;
65552;SDS011;52465;51.560;14.368;2023-02-13T13:40:48;8.63;;;7.80;;
65552;SDS011;52465;51.560;14.368;2023-02-13T13:43:50;8.00;;;7.40;;
65552;SDS011;52465;51.560;14.368;2023-02-13T13:46:46;8.35;;;7.75;;
65552;SDS011;52465;51.560;14.368;2023-02-13T13:49:49;8.95;;;8.02;;
65552;SDS011;52465;51.560;14.368;2023-02-13T13:54:47;7.53;;;7.03;;
65552;SDS011;52465;51.560;14.368;2023-02-13T13:57:20;8.25;;;7.43;;
65552;SDS011;52465;51.560;14.368;2023-02-13T13:59:56;8.68;;;7.43;;
65552;SDS011;52465;51.560;14.368;2023-02-13T14:07:47;7.88;;;7.28;;
65552;SDS011;52465;51.560;14.368;2023-02-13T14:26:11;7.57;;;7.05;;
65552;SDS011;52465;51.560;14.368;2023-02-13T14:28:40;7.85;;;7.25;;
65552;SDS011;52465;51.560;14.368;2023-02-13T14:31:27;8.10;;;7.20;;
65552;SDS011;52465;51.560;14.368;2023-02-13T14:34:02;8.13;;;7.43;;
65552;SDS011;52465;51.560;14.368;2023-02-13T14:36:43;8.25;;;7.50;;
65552;SDS011;52465;51.560;14.368;2023-02-13T14:44:21;8.90;;;7.38;;
65552;SDS011;52465;51.560;14.368;2023-02-13T14:46:48;8.07;;;7.40;;
65552;SDS011;52465;51.560;14.368;2023-02-13T14:49:18;7.65;;;7.15;;
65552;SDS011;52465;51.560;14.368;2023-02-13T14:51:50;8.40;;;7.70;;
65552;SDS011;52465;51.560;14.368;2023-02-13T14:54:23;7.82;;;7.22;;
65552;SDS011;52465;51.560;14.368;2023-02-13T14:56:53;7.35;;;6.75;;
65552;SDS011;52465;51.560;14.368;2023-02-13T14:59:35;8.13;;;7.53;;
65552;SDS011;52465;51.560;14.368;2023-02-13T15:02:23;8.52;;;7.82;;
65552;SDS011;52465;51.560;14.368;2023-02-13T15:07:25;7.75;;;7.15;;
65552;SDS011;52465;51.560;14.368;2023-02-13T15:09:59;7.80;;;7.20;;
65552;SDS011;52465;51.560;14.368;2023-02-13T15:12:32;8.13;;;7.20;;
65552;SDS011;52465;51.560;14.368;2023-02-13T15:14:59;8.32;;;7.60;;
65552;SDS011;52465;51.560;14.368;2023-02-13T15:17:26;8.07;;;7.47;;
65552;SDS011;52465;51.560;14.368;2023-02-13T15:20:06;7.28;;;6.78;;
65552;SDS011;52465;51.560;14.368;2023-02-13T15:22:44;7.75;;;7.25;;
65552;SDS011;52465;51.560;14.368;2023-02-13T15:28:03;7.75;;;6.95;;
65552;SDS011;52465;51.560;14.368;2023-02-13T15:30:32;7.70;;;7.10;;
65552;SDS011;52465;51.560;14.368;2023-02-13T15:33:14;8.00;;;7.32;;
65552;SDS011;52465;51.560;14.368;2023-02-13T15:35:41;7.68;;;7.07;;
65552;SDS011;52465;51.560;14.368;2023-02-13T15:38:18;7.32;;;6.80;;
65552;SDS011;52465;51.560;14.368;2023-02-13T15:40:49;8.23;;;7.43;;
65552;SDS011;52465;51.560;14.368;2023-02-13T15:43:23;7.53;;;6.95;;
65552;SDS011;52465;51.560;14.368;2023-02-13T15:46:03;7.75;;;6.95;;
65552;SDS011;52465;51.560;14.368;2023-02-13T15:48:31;7.57;;;6.97;;
65552;SDS011;52465;51.560;14.368;2023-02-13T15:51:01;7.65;;;7.05;;
65552;SDS011;52465;51.560;14.368;2023-02-13T15:53:27;7.55;;;6.95;;
65552;SDS011;52465;51.560;14.368;2023-02-13T15:55:58;7.15;;;6.75;;
65552;SDS011;52465;51.560;14.368;2023-02-13T15:58:27;8.23;;;7.63;;
65552;SDS011;52465;51.560;14.368;2023-02-13T16:00:56;7.50;;;7.00;;
65552;SDS011;52465;51.560;14.368;2023-02-13T16:05:52;7.82;;;7.32;;
65552;SDS011;52465;51.560;14.368;2023-02-13T16:08:31;6.68;;;6.30;;
65552;SDS011;52465;51.560;14.368;2023-02-13T16:19:40;7.65;;;7.05;;
65552;SDS011;52465;51.560;14.368;2023-02-13T16:22:18;8.30;;;7.70;;
65552;SDS011;52465;51.560;14.368;2023-02-13T16:24:49;8.13;;;7.53;;
65552;SDS011;52465;51.560;14.368;2023-02-13T16:27:17;8.82;;;7.93;;
65552;SDS011;52465;51.560;14.368;2023-02-13T16:29:52;8.00;;;7.40;;
65552;SDS011;52465;51.560;14.368;2023-02-13T16:32:50;8.90;;;8.10;;
65552;SDS011;52465;51.560;14.368;2023-02-13T16:35:17;8.93;;;8.23;;
65552;SDS011;52465;51.560;14.368;2023-02-13T16:37:55;8.57;;;7.95;;
65552;SDS011;52465;51.560;14.368;2023-02-13T16:46:09;8.25;;;7.70;;
65552;SDS011;52465;51.560;14.368;2023-02-13T16:48:45;7.72;;;7.03;;
65552;SDS011;52465;51.560;14.368;2023-02-13T16:53:59;7.80;;;7.30;;
65552;SDS011;52465;51.560;14.368;2023-02-13T16:56:26;7.68;;;7.28;;
65552;SDS011;52465;51.560;14.368;2023-02-13T16:59:04;7.93;;;7.32;;
65552;SDS011;52465;51.560;14.368;2023-02-13T17:01:43;7.43;;;6.93;;
65552;SDS011;52465;51.560;14.368;2023-02-13T17:04:18;7.95;;;7.32;;
65552;SDS011;52465;51.560;14.368;2023-02-13T17:06:47;8.25;;;7.60;;
65552;SDS011;52465;51.560;14.368;2023-02-13T17:09:12;7.72;;;7.22;;
65552;SDS011;52465;51.560;14.368;2023-02-13T17:11:38;7.93;;;7.28;;
65552;SDS011;52465;51.560;14.368;2023-02-13T17:14:03;8.18;;;7.47;;
65552;SDS011;52465;51.560;14.368;2023-02-13T17:16:29;8.15;;;7.55;;
65552;SDS011;52465;51.560;14.368;2023-02-13T17:18:54;8.02;;;7.43;;
65552;SDS011;52465;51.560;14.368;2023-02-13T17:21:20;7.78;;;7.18;;
65552;SDS011;52465;51.560;14.368;2023-02-13T17:23:45;7.65;;;7.10;;
65552;SDS011;52465;51.560;14.368;2023-02-13T17:26:11;7.80;;;7.20;;
65552;SDS011;52465;51.560;14.368;2023-02-13T17:28:37;6.97;;;6.57;;
65552;SDS011;52465;51.560;14.368;2023-02-13T17:31:02;7.50;;;7.00;;
65552;SDS011;52465;51.560;14.368;2023-02-13T17:33:33;7.97;;;7.28;;
65552;SDS011;52465;51.560;14.368;2023-02-13T17:36:00;6.57;;;6.28;;